createdAt,value
2022-08-26T00:00:25.010Z,10.80
2022-08-26T00:03:09.464Z,11.50
2022-08-26T00:05:45.383Z,12.40
2022-08-26T00:08:20.610Z,12.00
2022-08-26T00:10:53.662Z,11.80
2022-08-26T00:13:26.551Z,12.70
2022-08-26T00:15:59.650Z,13.40
2022-08-26T00:18:33.199Z,12.70
2022-08-26T00:21:12.311Z,12.60
2022-08-26T00:23:45.339Z,11.40
2022-08-26T00:26:18.735Z,12.00
2022-08-26T00:28:53.626Z,11.80
2022-08-26T00:31:26.491Z,12.00
2022-08-26T00:33:59.941Z,12.40
2022-08-26T00:36:33.093Z,12.00
2022-08-26T00:39:07.231Z,11.10
2022-08-26T00:41:41.790Z,12.40
2022-08-26T00:44:15.275Z,13.30
2022-08-26T00:46:54.498Z,12.90
2022-08-26T00:49:37.895Z,13.70
2022-08-26T00:52:21.569Z,13.20
2022-08-26T00:55:04.288Z,12.20
2022-08-26T00:57:39.008Z,10.90
2022-08-26T01:00:18.988Z,12.10
2022-08-26T01:02:52.550Z,11.60
2022-08-26T01:05:25.842Z,13.40
2022-08-26T01:07:58.662Z,12.50
2022-08-26T01:10:32.855Z,12.10
2022-08-26T01:13:10.298Z,11.10
2022-08-26T01:15:47.787Z,11.20
2022-08-26T01:18:21.268Z,10.70
2022-08-26T01:21:04.854Z,10.40
2022-08-26T01:23:45.019Z,10.60
2022-08-26T01:26:24.189Z,9.00
2022-08-26T01:29:03.184Z,9.30
2022-08-26T01:31:48.578Z,10.50
2022-08-26T01:34:25.688Z,9.60
2022-08-26T01:37:14.682Z,10.30
2022-08-26T01:39:53.585Z,10.80
2022-08-26T01:42:28.741Z,10.10
2022-08-26T01:45:08.255Z,10.20
2022-08-26T01:47:42.771Z,10.60
2022-08-26T01:50:28.080Z,9.60
2022-08-26T01:53:07.255Z,8.60
2022-08-26T01:55:44.326Z,7.50
2022-08-26T01:58:23.322Z,8.80
2022-08-26T02:00:56.552Z,9.30
2022-08-26T02:03:30.986Z,10.40
2022-08-26T02:06:10.257Z,10.00
2022-08-26T02:08:46.796Z,9.30
2022-08-26T02:11:20.899Z,8.40
2022-08-26T02:13:57.637Z,9.00
2022-08-26T02:16:34.018Z,8.40
2022-08-26T02:19:11.705Z,9.20
2022-08-26T02:21:53.250Z,8.50
2022-08-26T02:24:28.493Z,7.90
2022-08-26T02:27:01.894Z,9.40
2022-08-26T02:29:41.715Z,10.70
2022-08-26T02:32:18.433Z,9.50
2022-08-26T02:34:51.675Z,9.60
2022-08-26T02:37:24.610Z,10.20
2022-08-26T02:39:59.449Z,10.60
2022-08-26T02:42:35.322Z,10.40
2022-08-26T02:45:10.780Z,9.80
2022-08-26T02:47:43.726Z,10.20
2022-08-26T02:50:16.747Z,10.20
2022-08-26T02:52:50.007Z,11.90
2022-08-26T02:55:24.674Z,12.90
2022-08-26T02:57:57.867Z,12.70
2022-08-26T03:00:31.544Z,10.30
2022-08-26T03:03:04.451Z,12.10
2022-08-26T03:05:37.907Z,11.00
2022-08-26T03:08:13.200Z,11.00
2022-08-26T03:10:48.119Z,10.70
2022-08-26T03:13:22.238Z,10.70
2022-08-26T03:15:55.556Z,11.50
2022-08-26T03:18:29.132Z,12.90
2022-08-26T03:21:05.802Z,13.40
2022-08-26T03:23:39.725Z,15.20
2022-08-26T03:26:14.066Z,13.80
2022-08-26T03:29:01.055Z,12.50
2022-08-26T03:31:35.230Z,13.00
2022-08-26T03:34:08.195Z,13.70
2022-08-26T03:36:41.675Z,16.30
2022-08-26T03:39:15.531Z,16.30
2022-08-26T03:41:48.335Z,14.90
2022-08-26T03:44:21.544Z,15.60
2022-08-26T03:46:55.097Z,14.00
2022-08-26T03:49:28.961Z,13.40
2022-08-26T03:52:01.918Z,13.20
2022-08-26T03:54:36.652Z,13.20
2022-08-26T03:57:10.024Z,13.00
2022-08-26T03:59:43.436Z,14.50
2022-08-26T04:02:16.835Z,14.80
2022-08-26T04:04:50.757Z,14.70
2022-08-26T04:07:26.400Z,13.80
2022-08-26T04:10:01.226Z,13.60
2022-08-26T04:12:34.025Z,14.60
2022-08-26T04:15:09.429Z,14.40
2022-08-26T04:17:42.767Z,14.10
2022-08-26T04:20:18.523Z,15.80
2022-08-26T04:22:51.382Z,15.60
2022-08-26T04:25:24.572Z,15.50
2022-08-26T04:27:57.660Z,15.00
2022-08-26T04:30:30.647Z,14.70
2022-08-26T04:33:12.647Z,14.80
2022-08-26T04:35:46.090Z,14.90
2022-08-26T04:38:21.323Z,14.60
2022-08-26T04:40:54.882Z,15.60
2022-08-26T04:43:30.734Z,14.90
2022-08-26T04:46:06.511Z,14.00
2022-08-26T04:48:39.735Z,15.20
2022-08-26T04:51:12.927Z,13.50
2022-08-26T04:53:46.332Z,13.40
2022-08-26T04:56:19.150Z,14.10
2022-08-26T04:58:51.833Z,13.30
2022-08-26T05:01:24.733Z,12.90
2022-08-26T05:03:57.528Z,12.50
2022-08-26T05:06:31.054Z,11.70
2022-08-26T05:09:10.252Z,12.20
2022-08-26T05:11:43.224Z,11.70
2022-08-26T05:14:16.027Z,10.50
2022-08-26T05:16:49.245Z,11.70
2022-08-26T05:19:22.955Z,12.10
2022-08-26T05:21:56.187Z,12.40
2022-08-26T05:24:30.507Z,11.90
2022-08-26T05:27:04.148Z,12.00
2022-08-26T05:29:44.470Z,10.70
2022-08-26T05:32:17.454Z,11.30
2022-08-26T05:34:54.232Z,11.20
2022-08-26T05:37:27.127Z,12.00
2022-08-26T05:40:00.054Z,12.00
2022-08-26T05:42:33.992Z,10.00
2022-08-26T05:45:08.600Z,10.80
2022-08-26T05:47:41.833Z,11.10
2022-08-26T05:50:14.930Z,10.60
2022-08-26T05:52:47.729Z,9.60
2022-08-26T05:55:21.637Z,9.30
2022-08-26T05:57:55.476Z,8.90
2022-08-26T06:00:29.020Z,9.30
2022-08-26T06:03:02.001Z,8.70
2022-08-26T06:05:39.243Z,9.40
2022-08-26T06:08:14.201Z,8.70
2022-08-26T06:10:55.805Z,9.20
2022-08-26T06:13:31.968Z,8.10
2022-08-26T06:16:11.377Z,8.70
2022-08-26T06:18:47.267Z,8.90
2022-08-26T06:21:25.501Z,8.00
2022-08-26T06:24:18.742Z,8.80
2022-08-26T06:26:55.265Z,8.50
2022-08-26T06:29:30.242Z,10.00
2022-08-26T06:32:04.574Z,8.50
2022-08-26T06:34:37.671Z,8.00
2022-08-26T06:37:10.639Z,7.80
2022-08-26T06:39:44.550Z,7.80
2022-08-26T06:42:17.459Z,8.20
2022-08-26T06:44:50.524Z,7.60
2022-08-26T06:47:23.729Z,8.50
2022-08-26T06:49:57.930Z,9.00
2022-08-26T06:52:30.933Z,9.00
2022-08-26T06:55:03.959Z,9.20
2022-08-26T06:57:41.070Z,7.30
2022-08-26T07:00:18.377Z,7.80
2022-08-26T07:02:53.509Z,7.30
2022-08-26T07:05:26.965Z,8.40
2022-08-26T07:07:59.793Z,8.80
2022-08-26T07:10:32.881Z,8.10
2022-08-26T07:13:07.969Z,12.30
2022-08-26T07:15:47.021Z,7.90
2022-08-26T07:18:25.929Z,7.70
2022-08-26T07:20:59.062Z,12.10
2022-08-26T07:23:32.467Z,8.00
2022-08-26T07:26:09.030Z,8.00
2022-08-26T07:28:41.852Z,7.50
2022-08-26T07:31:17.835Z,7.50
2022-08-26T07:33:52.096Z,7.50
2022-08-26T07:36:26.988Z,8.30
2022-08-26T07:39:00.204Z,7.00
2022-08-26T07:41:33.302Z,6.80
2022-08-26T07:44:08.986Z,6.50
2022-08-26T07:46:44.006Z,9.50
2022-08-26T07:49:18.315Z,7.00
2022-08-26T07:51:51.666Z,8.00
2022-08-26T07:54:26.995Z,7.20
2022-08-26T07:57:00.328Z,7.10
2022-08-26T07:59:38.033Z,7.50
2022-08-26T08:02:11.247Z,7.40
2022-08-26T08:04:44.151Z,7.00
2022-08-26T08:07:17.186Z,7.60
2022-08-26T08:09:51.616Z,7.70
2022-08-26T08:23:06.967Z,6.60
2022-08-26T08:25:40.175Z,6.50
2022-08-26T08:28:13.131Z,7.30
2022-08-26T08:30:46.042Z,7.20
2022-08-26T08:33:19.631Z,6.40
2022-08-26T08:35:52.453Z,6.90
2022-08-26T08:38:25.594Z,7.20
2022-08-26T08:40:59.191Z,6.90
2022-08-26T08:43:43.038Z,6.40
2022-08-26T08:46:19.790Z,6.90
2022-08-26T08:48:58.931Z,6.70
2022-08-26T08:51:41.449Z,5.50
2022-08-26T08:54:15.195Z,6.40
2022-08-26T08:56:54.590Z,5.40
2022-08-26T08:59:34.136Z,4.80
2022-08-26T09:02:16.670Z,5.40
2022-08-26T09:05:07.292Z,6.20
2022-08-26T09:07:47.028Z,5.50
2022-08-26T09:10:37.677Z,5.90
2022-08-26T09:13:16.747Z,4.60
2022-08-26T09:16:07.121Z,4.50
2022-08-26T09:19:05.592Z,5.40
2022-08-26T09:21:39.170Z,5.20
2022-08-26T09:24:13.849Z,5.60
2022-08-26T09:26:49.834Z,6.30
2022-08-26T09:29:29.268Z,5.50
2022-08-26T09:35:02.331Z,4.70
2022-08-26T09:37:43.174Z,4.60
2022-08-26T09:40:27.317Z,5.10
2022-08-26T09:43:22.347Z,5.50
2022-08-26T09:46:11.347Z,4.80
2022-08-26T09:48:44.823Z,5.50
2022-08-26T09:51:34.138Z,4.60
2022-08-26T09:54:07.687Z,4.50
2022-08-26T09:56:42.789Z,4.30
2022-08-26T09:59:30.246Z,4.70
2022-08-26T10:02:25.448Z,4.00
2022-08-26T10:05:09.295Z,4.40
2022-08-26T10:07:51.494Z,4.20
2022-08-26T10:10:34.929Z,4.40
2022-08-26T10:13:15.618Z,4.00
2022-08-26T10:15:56.956Z,4.10
2022-08-26T10:18:36.989Z,4.10
2022-08-26T10:21:15.467Z,4.40
2022-08-26T10:23:55.597Z,4.30
2022-08-26T10:26:37.332Z,4.90
2022-08-26T10:29:17.347Z,5.10
2022-08-26T10:32:02.516Z,4.80
2022-08-26T10:34:37.238Z,4.30
2022-08-26T10:37:16.719Z,4.70
2022-08-26T10:39:57.063Z,3.90
2022-08-26T10:42:38.688Z,4.40
2022-08-26T10:45:16.648Z,3.70
2022-08-26T10:47:55.668Z,4.20
2022-08-26T10:50:34.587Z,3.40
2022-08-26T10:53:15.818Z,3.30
2022-08-26T10:56:00.847Z,3.50
2022-08-26T10:58:50.469Z,3.00
2022-08-26T11:01:51.044Z,3.30
2022-08-26T11:04:48.366Z,3.50
2022-08-26T11:07:45.769Z,3.60
2022-08-26T11:10:58.885Z,3.50
2022-08-26T11:14:06.633Z,3.10
2022-08-26T11:16:52.088Z,3.30
2022-08-26T11:20:08.978Z,3.20
2022-08-26T11:22:47.788Z,2.80
2022-08-26T11:25:27.855Z,3.00
2022-08-26T11:28:07.293Z,3.10
2022-08-26T11:30:58.166Z,3.20
2022-08-26T11:34:00.992Z,2.70
2022-08-26T11:37:05.212Z,2.90
2022-08-26T11:39:55.453Z,3.10
2022-08-26T11:42:37.996Z,3.30
2022-08-26T11:45:27.059Z,3.30
2022-08-26T11:48:00.078Z,3.10
2022-08-26T11:50:33.252Z,3.70
2022-08-26T11:53:07.770Z,3.10
2022-08-26T11:55:45.678Z,3.00
2022-08-26T11:58:21.745Z,3.10
2022-08-26T12:00:59.215Z,2.90
2022-08-26T12:03:40.578Z,3.70
2022-08-26T12:06:24.266Z,3.60
2022-08-26T12:09:00.211Z,2.60
2022-08-26T12:11:36.356Z,2.90
2022-08-26T12:14:18.478Z,3.00
2022-08-26T12:16:52.134Z,3.10
2022-08-26T12:19:32.955Z,3.20
2022-08-26T12:22:16.302Z,3.00
2022-08-26T12:24:52.772Z,2.80
2022-08-26T12:27:30.866Z,3.20
2022-08-26T12:30:14.006Z,3.00
2022-08-26T12:32:57.561Z,3.30
2022-08-26T12:35:32.455Z,3.70
2022-08-26T12:38:05.790Z,3.10
2022-08-26T12:40:44.219Z,3.20
2022-08-26T12:43:43.370Z,3.50
2022-08-26T12:46:25.970Z,3.10
2022-08-26T12:49:01.619Z,3.90
2022-08-26T12:51:42.385Z,3.10
2022-08-26T12:54:19.265Z,3.50
2022-08-26T12:56:52.199Z,3.20
2022-08-26T12:59:28.065Z,3.40
2022-08-26T13:02:01.073Z,3.20
2022-08-26T13:04:46.581Z,3.10
2022-08-26T13:07:28.164Z,3.30
2022-08-26T13:10:02.497Z,3.10
2022-08-26T13:12:38.404Z,3.60
2022-08-26T13:15:12.709Z,6.00
2022-08-26T13:17:45.733Z,3.60
2022-08-26T13:20:18.793Z,3.50
2022-08-26T13:22:58.888Z,2.90
2022-08-26T13:25:32.283Z,3.40
2022-08-26T13:28:05.622Z,3.30
2022-08-26T13:30:38.669Z,3.10
2022-08-26T13:33:14.997Z,3.30
2022-08-26T13:35:47.835Z,10.30
2022-08-26T13:38:33.840Z,3.20
2022-08-26T13:41:07.654Z,3.60
2022-08-26T13:43:40.672Z,3.30
2022-08-26T13:46:14.726Z,3.80
2022-08-26T13:48:47.759Z,3.80
2022-08-26T13:51:22.647Z,3.50
2022-08-26T13:53:56.646Z,3.00
2022-08-26T13:56:31.574Z,3.30
2022-08-26T13:59:04.755Z,5.70
2022-08-26T14:01:40.344Z,3.10
2022-08-26T14:04:13.332Z,3.20
2022-08-26T14:06:46.585Z,3.10
2022-08-26T14:09:20.791Z,2.90
2022-08-26T14:11:54.335Z,3.20
2022-08-26T14:14:28.139Z,3.40
2022-08-26T14:17:01.314Z,3.30
2022-08-26T14:19:34.948Z,3.20
2022-08-26T14:22:08.419Z,3.20
2022-08-26T14:24:41.239Z,3.10
2022-08-26T14:27:14.470Z,3.30
2022-08-26T14:29:47.887Z,3.20
2022-08-26T14:32:25.493Z,3.30
2022-08-26T14:37:31.811Z,2.90
2022-08-26T14:40:06.378Z,2.80
2022-08-26T14:42:40.581Z,2.90
2022-08-26T14:45:18.760Z,3.20
2022-08-26T14:47:53.780Z,3.20
2022-08-26T14:50:28.679Z,3.10
2022-08-26T14:53:19.501Z,3.10
2022-08-26T14:55:52.446Z,2.90
2022-08-26T14:58:25.432Z,3.30
2022-08-26T15:01:04.558Z,2.90
2022-08-26T15:03:37.771Z,3.00
2022-08-26T15:06:11.644Z,3.30
2022-08-26T15:08:45.531Z,3.00
2022-08-26T15:11:18.765Z,2.80
2022-08-26T15:13:51.751Z,2.60
2022-08-26T15:16:25.313Z,3.40
2022-08-26T15:18:58.650Z,2.80
2022-08-26T15:21:32.045Z,2.80
2022-08-26T15:24:05.577Z,3.10
2022-08-26T15:26:38.933Z,2.90
2022-08-26T15:29:12.004Z,2.80
2022-08-26T15:31:45.346Z,2.90
2022-08-26T15:34:19.294Z,3.20
2022-08-26T15:36:54.675Z,3.20
2022-08-26T15:39:27.668Z,3.00
2022-08-26T15:42:01.331Z,3.10
2022-08-26T15:44:36.962Z,2.90
2022-08-26T15:47:10.164Z,2.70
2022-08-26T15:49:43.190Z,2.70
2022-08-26T15:52:17.204Z,2.60
2022-08-26T15:54:50.189Z,3.00
2022-08-26T15:57:23.584Z,3.50
2022-08-26T15:59:56.575Z,3.00
2022-08-26T16:02:32.315Z,2.90
2022-08-26T16:05:06.089Z,2.40
2022-08-26T16:07:40.655Z,3.00
2022-08-26T16:10:14.630Z,2.80
2022-08-26T16:12:47.444Z,2.90
2022-08-26T16:15:22.190Z,2.70
2022-08-26T16:17:55.194Z,2.80
2022-08-26T16:20:28.038Z,2.70
2022-08-26T16:23:01.386Z,2.70
2022-08-26T16:25:34.957Z,2.70
2022-08-26T16:28:09.865Z,3.00
2022-08-26T16:30:46.224Z,2.50
2022-08-26T16:33:29.079Z,3.10
2022-08-26T16:36:02.802Z,3.00
2022-08-26T16:38:36.375Z,2.50
2022-08-26T16:41:10.594Z,2.20
2022-08-26T16:43:43.562Z,2.50
2022-08-26T16:46:17.380Z,2.10
2022-08-26T16:48:50.356Z,2.50
2022-08-26T16:51:27.343Z,2.50
2022-08-26T16:54:02.616Z,2.40
2022-08-26T16:56:36.242Z,4.20
2022-08-26T16:59:11.899Z,3.10
2022-08-26T17:01:44.872Z,3.20
2022-08-26T17:04:19.544Z,2.70
2022-08-26T17:06:52.628Z,2.20
2022-08-26T17:09:26.075Z,2.50
2022-08-26T17:11:59.122Z,2.70
2022-08-26T17:14:33.788Z,2.70
2022-08-26T17:17:07.234Z,2.70
2022-08-26T17:19:47.031Z,2.70
2022-08-26T17:22:20.924Z,3.60
2022-08-26T17:24:54.024Z,2.90
2022-08-26T17:27:26.854Z,3.60
2022-08-26T17:29:59.850Z,3.30
2022-08-26T17:32:32.929Z,2.80
2022-08-26T17:35:07.507Z,3.10
2022-08-26T17:37:40.543Z,2.60
2022-08-26T17:40:20.453Z,2.80
2022-08-26T17:42:53.374Z,3.00
2022-08-26T17:45:26.904Z,2.70
2022-08-26T17:48:00.942Z,2.30
2022-08-26T17:50:33.894Z,3.10
2022-08-26T17:53:06.689Z,2.80
2022-08-26T17:55:41.794Z,3.80
2022-08-26T17:58:19.999Z,3.00
2022-08-26T18:00:54.974Z,3.00
2022-08-26T18:03:27.957Z,3.70
2022-08-26T18:06:01.026Z,8.20
2022-08-26T18:08:33.871Z,6.90
2022-08-26T18:11:11.464Z,2.90
2022-08-26T18:13:47.053Z,3.40
2022-08-26T18:16:21.509Z,3.00
2022-08-26T18:18:54.862Z,2.70
2022-08-26T18:21:29.862Z,3.20
2022-08-26T18:24:03.182Z,2.90
2022-08-26T18:26:41.594Z,3.50
2022-08-26T18:29:14.480Z,3.20
2022-08-26T18:31:47.363Z,2.70
2022-08-26T18:34:21.174Z,2.80
2022-08-26T18:36:54.235Z,3.00
2022-08-26T18:39:27.065Z,3.40
2022-08-26T18:41:59.958Z,2.80
2022-08-26T18:44:32.956Z,3.00
2022-08-26T18:47:05.964Z,3.30
2022-08-26T18:49:39.177Z,3.00
2022-08-26T18:52:12.075Z,3.50
2022-08-26T18:54:45.679Z,3.40
2022-08-26T18:57:18.516Z,2.60
2022-08-26T18:59:51.460Z,3.20
2022-08-26T19:02:24.765Z,2.70
2022-08-26T19:04:58.663Z,3.50
2022-08-26T19:07:33.112Z,3.80
2022-08-26T19:10:08.854Z,2.90
2022-08-26T19:12:42.956Z,3.30
2022-08-26T19:15:18.452Z,3.30
2022-08-26T19:17:51.604Z,3.20
2022-08-26T19:20:24.895Z,3.10
2022-08-26T19:23:02.652Z,3.40
2022-08-26T19:25:49.164Z,3.10
2022-08-26T19:28:23.683Z,3.40
2022-08-26T19:30:56.795Z,3.40
2022-08-26T19:33:30.579Z,3.30
2022-08-26T19:36:06.360Z,3.20
2022-08-26T19:38:39.737Z,3.20
2022-08-26T19:41:15.631Z,3.40
2022-08-26T19:43:48.713Z,3.80
2022-08-26T19:46:24.394Z,3.30
2022-08-26T19:48:58.179Z,3.40
2022-08-26T19:51:37.550Z,3.80
2022-08-26T19:54:11.066Z,3.90
2022-08-26T19:56:46.896Z,3.70
2022-08-26T19:59:22.257Z,3.60
2022-08-26T20:02:00.699Z,3.10
2022-08-26T20:04:35.575Z,4.40
2022-08-26T20:07:09.547Z,4.20
2022-08-26T20:09:42.689Z,3.90
2022-08-26T20:12:17.484Z,4.20
2022-08-26T20:14:50.569Z,3.40
2022-08-26T20:17:23.453Z,4.30
2022-08-26T20:20:21.847Z,5.00
2022-08-26T20:23:06.279Z,3.40
2022-08-26T20:25:39.548Z,3.30
2022-08-26T20:28:12.634Z,3.80
2022-08-26T20:30:45.417Z,3.60
2022-08-26T20:33:18.855Z,3.30
2022-08-26T20:35:51.745Z,3.20
2022-08-26T20:38:24.747Z,3.10
2022-08-26T20:40:57.875Z,3.50
2022-08-26T20:43:30.862Z,3.30
2022-08-26T20:46:04.192Z,3.20
2022-08-26T20:48:41.342Z,3.20
2022-08-26T20:51:14.437Z,3.30
2022-08-26T20:53:47.543Z,3.80
2022-08-26T20:56:24.636Z,4.00
2022-08-26T20:59:02.928Z,3.90
2022-08-26T21:01:42.150Z,4.10
2022-08-26T21:04:22.811Z,4.20
2022-08-26T21:06:56.172Z,4.30
2022-08-26T21:09:30.244Z,4.10
2022-08-26T21:12:04.266Z,5.30
2022-08-26T21:14:37.226Z,4.60
2022-08-26T21:17:10.115Z,4.90
2022-08-26T21:19:42.997Z,5.00
2022-08-26T21:22:15.774Z,4.40
2022-08-26T21:24:49.488Z,4.30
2022-08-26T21:27:26.240Z,4.00
2022-08-26T21:30:00.067Z,4.60
2022-08-26T21:32:33.983Z,4.00
2022-08-26T21:35:07.898Z,3.30
2022-08-26T21:37:40.788Z,3.20
2022-08-26T21:40:15.428Z,3.90
2022-08-26T21:42:48.411Z,3.70
2022-08-26T21:45:21.841Z,4.30
2022-08-26T21:47:55.270Z,3.90
2022-08-26T21:50:29.899Z,3.80
2022-08-26T21:53:03.090Z,3.90
2022-08-26T21:55:39.455Z,5.00
2022-08-26T21:58:13.123Z,5.30
2022-08-26T22:00:53.213Z,4.20
2022-08-26T22:03:26.309Z,4.20
2022-08-26T22:06:01.749Z,4.60
2022-08-26T22:08:35.244Z,4.30
2022-08-26T22:11:09.997Z,4.60
2022-08-26T22:13:44.828Z,4.60
2022-08-26T22:16:18.653Z,3.90
2022-08-26T22:18:51.901Z,4.80
2022-08-26T22:21:28.208Z,3.80
2022-08-26T22:24:01.652Z,4.70
2022-08-26T22:26:36.615Z,4.70
2022-08-26T22:29:09.727Z,4.20
2022-08-26T22:31:43.030Z,5.40
2022-08-26T22:34:19.823Z,4.10
2022-08-26T22:36:53.543Z,4.70
2022-08-26T22:39:28.787Z,5.20
2022-08-26T22:42:01.793Z,5.10
2022-08-26T22:44:37.325Z,4.50
2022-08-26T22:47:10.522Z,4.50
2022-08-26T22:49:43.307Z,5.10
2022-08-26T22:52:16.216Z,4.70
2022-08-26T22:54:49.439Z,4.80
2022-08-26T22:57:23.076Z,4.80
2022-08-26T22:59:55.822Z,4.90
2022-08-26T23:02:29.047Z,4.40
2022-08-26T23:05:01.934Z,4.50
2022-08-26T23:07:34.822Z,4.70
2022-08-26T23:10:11.647Z,4.80
2022-08-26T23:12:44.586Z,5.30
2022-08-26T23:15:18.613Z,4.40
2022-08-26T23:17:58.439Z,4.40
2022-08-26T23:20:33.980Z,4.40
2022-08-26T23:23:06.968Z,4.70
2022-08-26T23:25:39.890Z,4.70
2022-08-26T23:28:14.376Z,5.60
2022-08-26T23:30:47.632Z,5.10
2022-08-26T23:33:20.693Z,5.10
2022-08-26T23:35:53.754Z,4.60
2022-08-26T23:38:27.302Z,4.30
2022-08-26T23:41:02.800Z,4.40
2022-08-26T23:43:35.749Z,4.90
2022-08-26T23:46:08.927Z,4.70
2022-08-26T23:48:41.933Z,5.30
2022-08-26T23:51:32.762Z,4.70
2022-08-26T23:54:05.767Z,5.00
2022-08-26T23:56:42.485Z,5.40
2022-08-26T23:59:15.824Z,6.60
